TimeEDT,TemperatureF,Dew PointF,Humidity,Sea Level PressureIn,VisibilityMPH,Wind Direction,Wind SpeedMPH,Gust SpeedMPH,PrecipitationIn,Events,Conditions,WindDirDegrees,DateUTC
12:54 AM,71.1,62.1,73,30.03,10.0,SSE,8.1,-,N/A,,Clear,160,2007-06-08 04:54:00
1:54 AM,71.1,63.0,75,30.03,10.0,SE,6.9,-,N/A,,Clear,140,2007-06-08 05:54:00
2:54 AM,71.1,63.0,75,30.02,10.0,SE,5.8,-,N/A,,Clear,130,2007-06-08 06:54:00
3:54 AM,70.0,62.1,76,30.03,10.0,ESE,3.5,-,N/A,,Clear,120,2007-06-08 07:54:00
4:54 AM,66.9,62.1,84,30.03,10.0,Calm,Calm,-,N/A,,Clear,0,2007-06-08 08:54:00
5:54 AM,66.0,62.1,87,30.03,10.0,Calm,Calm,-,N/A,,Clear,0,2007-06-08 09:54:00
6:54 AM,66.0,62.1,87,30.06,10.0,NW,3.5,-,N/A,,Mostly Cloudy,320,2007-06-08 10:54:00
7:54 AM,71.1,63.0,75,30.06,10.0,NNW,8.1,-,N/A,,Clear,340,2007-06-08 11:54:00
8:54 AM,75.9,63.0,64,30.06,10.0,NNW,6.9,-,N/A,,Clear,330,2007-06-08 12:54:00
9:54 AM,81.0,63.0,54,30.06,10.0,NNE,4.6,-,N/A,,Clear,30,2007-06-08 13:54:00
10:54 AM,82.0,64.0,54,30.05,10.0,Variable,4.6,-,N/A,,Clear,0,2007-06-08 14:54:00
11:54 AM,84.0,63.0,49,30.04,10.0,Variable,6.9,-,N/A,,Clear,0,2007-06-08 15:54:00
12:54 PM,86.0,62.1,44,30.03,10.0,Variable,4.6,-,N/A,,Mostly Cloudy,0,2007-06-08 16:54:00
1:54 PM,87.1,63.0,44,30.01,10.0,South,12.7,16.1,N/A,,Clear,180,2007-06-08 17:54:00
2:54 PM,80.1,62.1,54,30.02,10.0,North,17.3,23.0,N/A,,Scattered Clouds,350,2007-06-08 18:54:00
3:01 PM,80.6,60.8,51,30.11,10.0,North,12.7,23.0,N/A,,Scattered Clouds,350,2007-06-08 19:01:00
3:54 PM,80.1,62.1,54,30.00,10.0,North,8.1,-,N/A,,Clear,350,2007-06-08 19:54:00
4:54 PM,84.9,62.1,46,29.99,10.0,Variable,6.9,-,N/A,,Clear,0,2007-06-08 20:54:00
5:54 PM,82.9,64.9,54,29.98,10.0,Variable,3.5,-,N/A,,Clear,0,2007-06-08 21:54:00
6:54 PM,79.0,66.0,64,29.99,10.0,South,3.5,-,N/A,,Clear,180,2007-06-08 22:54:00
7:54 PM,80.1,66.0,62,30.01,10.0,NNW,10.4,-,N/A,,Overcast,330,2007-06-08 23:54:00
8:54 PM,70.0,62.1,76,30.03,10.0,NNW,8.1,-,0.07,,Mostly Cloudy,330,2007-06-09 00:54:00
9:54 PM,70.0,60.1,71,29.99,10.0,NNW,9.2,-,N/A,,Clear,340,2007-06-09 01:54:00
10:54 PM,66.0,61.0,84,30.01,10.0,West,4.6,-,N/A,,Clear,270,2007-06-09 02:54:00
11:54 PM,69.1,61.0,75,30.01,10.0,North,5.8,-,N/A,,Clear,360,2007-06-09 03:54:00